Ncc Rabigh — HZQA — position and weather

sailwx.info

Track history (hours):
 
Tides and Currents Weather Stations Pressure Air Temp Water Temp Dewpoint Dewpoint Depression Visibility Wind Speed Wind Dir Waves Ship Positions

Ncc Rabigh

Last reported at 2015-Mar-28 00:33 UTC. Time now 2015-Mar-28 00:40 UTC.
Position N 31°34' E 121°20'.

Length 183 m; draft 10.1 m.

Type: Ship (hazmat cat B). MMSI: 403575000.

Date/timePositionNaut miles runAvg speedWind from/ knotsBaromVisibWave heightAir tempDewpointWater temp
2015-Mar-28 00:33N 31°34' E 121°20'1 2.3
2015-Mar-28 00:05N 31°34' E 121°19'1 2.4
2015-Mar-27 23:33N 31°35' E 121°17'0 0.0
2015-Mar-27 22:33N 31°35' E 121°17'0 0.0
2015-Mar-26 11:33N 31°35' E 121°17'2 2.4
2015-Mar-26 10:33N 31°33' E 121°19'1111.0
2015-Mar-26 09:33N 31°26' E 121°29'1010.1
2015-Mar-26 08:33N 31°21' E 121°39'1211.9
2015-Mar-26 07:33N 31°16' E 121°52'1111.0
2015-Mar-26 06:33N 31°14' E 122°05'1111.2
2015-Mar-26 05:33N 31°08' E 122°15'1110.6
2015-Mar-26 04:33N 31°07' E 122°28'23 9.5
2015-Mar-26 02:09N 31°02' E 122°54'5 5.7
2015-Mar-26 01:13N 30°60' E 122°60'711.1
2015-Mar-26 00:33N 30°57' E 123°07'  
2015-Mar-23 14:33N 22°55' E 119°54'1512.5
2015-Mar-23 13:22N 22°40' E 119°53'911.3
2015-Mar-23 12:33N 22°31' E 119°54'10 9.9
2015-Mar-23 11:33N 22°21' E 119°52'  
2015-Mar-18 08:32N 01°16' E 104°14'1414.3
2015-Mar-18 07:33N 01°14' E 104°00'1313.3
2015-Mar-18 06:33N 01°09' E 103°48'8 2.2
2015-Mar-18 03:06N 01°13' E 103°41'  
Track history (hours):
 
Tides and Currents Weather Stations Pressure Air Temp Water Temp Dewpoint Dewpoint Depression Visibility Wind Speed Wind Dir Waves Ship Positions

Ncc Rabigh

Last reported at 2015-Mar-28 00:33 UTC. Time now 2015-Mar-28 00:40 UTC.
Position N 31°34' E 121°20'.

Length 183 m; draft 10.1 m.

Type: Ship (hazmat cat B). MMSI: 403575000.

Date/timePositionNaut miles runAvg speedWind from/ knotsBaromVisibWave heightAir tempDewpointWater temp
2015-Mar-28 00:33N 31°34' E 121°20'1 2.3
2015-Mar-28 00:05N 31°34' E 121°19'1 2.4
2015-Mar-27 23:33N 31°35' E 121°17'0 0.0
2015-Mar-27 22:33N 31°35' E 121°17'0 0.0
2015-Mar-26 11:33N 31°35' E 121°17'2 2.4
2015-Mar-26 10:33N 31°33' E 121°19'1111.0
2015-Mar-26 09:33N 31°26' E 121°29'1010.1
2015-Mar-26 08:33N 31°21' E 121°39'1211.9
2015-Mar-26 07:33N 31°16' E 121°52'1111.0
2015-Mar-26 06:33N 31°14' E 122°05'1111.2
2015-Mar-26 05:33N 31°08' E 122°15'1110.6
2015-Mar-26 04:33N 31°07' E 122°28'23 9.5
2015-Mar-26 02:09N 31°02' E 122°54'5 5.7
2015-Mar-26 01:13N 30°60' E 122°60'711.1
2015-Mar-26 00:33N 30°57' E 123°07'  
2015-Mar-23 14:33N 22°55' E 119°54'1512.5
2015-Mar-23 13:22N 22°40' E 119°53'911.3
2015-Mar-23 12:33N 22°31' E 119°54'10 9.9
2015-Mar-23 11:33N 22°21' E 119°52'  
2015-Mar-18 08:32N 01°16' E 104°14'1414.3
2015-Mar-18 07:33N 01°14' E 104°00'1313.3
2015-Mar-18 06:33N 01°09' E 103°48'8 2.2
2015-Mar-18 03:06N 01°13' E 103°41'  

Dump ship's entire track history